createdAt,value
2023-04-18T00:02:20.525Z,7.05
2023-04-18T00:07:23.504Z,5.38
2023-04-18T00:12:44.857Z,5.27
2023-04-18T00:17:49.320Z,5.88
2023-04-18T00:22:53.237Z,5.17
2023-04-18T00:27:56.097Z,5.88
2023-04-18T00:33:01.694Z,5.82
2023-04-18T00:38:20.819Z,6.57
2023-04-18T00:43:24.651Z,6.73
2023-04-18T00:48:28.978Z,6.53
2023-04-18T00:53:32.025Z,6.43
2023-04-18T00:58:34.946Z,7.00
2023-04-18T01:03:58.568Z,6.83
2023-04-18T01:09:02.265Z,6.75
2023-04-18T01:14:06.179Z,6.72
2023-04-18T01:19:12.940Z,6.47
2023-04-18T01:24:18.751Z,7.73
2023-04-18T01:29:33.531Z,7.22
2023-04-18T01:34:36.380Z,7.70
2023-04-18T01:39:43.294Z,7.53
2023-04-18T01:44:46.144Z,6.80
2023-04-18T01:49:49.037Z,6.40
2023-04-18T01:55:12.280Z,6.43
2023-04-18T02:00:15.794Z,6.60
2023-04-18T02:05:18.579Z,8.53
2023-04-18T02:10:23.184Z,7.67
2023-04-18T02:15:26.418Z,9.20
2023-04-18T02:20:46.598Z,8.03
2023-04-18T02:25:50.855Z,8.20
2023-04-18T02:30:53.909Z,9.20
2023-04-18T02:35:56.768Z,8.77
2023-04-18T02:41:01.047Z,9.50
2023-04-18T02:46:24.295Z,9.05
2023-04-18T02:51:28.098Z,10.13
2023-04-18T02:56:39.828Z,9.67
2023-04-18T03:01:59.680Z,9.90
2023-04-18T03:07:02.844Z,9.25
2023-04-18T03:12:12.681Z,9.95
2023-04-18T03:17:15.837Z,9.40
2023-04-18T03:22:24.655Z,8.18
2023-04-18T03:27:32.856Z,8.63
2023-04-18T03:32:36.417Z,9.30
2023-04-18T03:37:39.552Z,9.13
2023-04-18T03:42:45.478Z,8.87
2023-04-18T03:47:48.559Z,8.30
2023-04-18T03:52:53.252Z,8.40
2023-04-18T03:57:58.905Z,7.97
2023-04-18T04:03:11.669Z,7.80
2023-04-18T04:08:16.356Z,8.68
2023-04-18T04:13:22.321Z,8.33
2023-04-18T04:18:31.110Z,8.60
2023-04-18T04:23:35.970Z,8.45
2023-04-18T04:28:59.318Z,8.13
2023-04-18T04:34:05.048Z,7.60
2023-04-18T04:39:08.653Z,7.50
2023-04-18T04:44:28.353Z,8.02
2023-04-18T04:49:31.411Z,7.90
2023-04-18T04:54:34.677Z,8.30
2023-04-18T04:59:41.478Z,7.83
2023-04-18T05:04:44.676Z,7.97
2023-04-18T05:09:47.620Z,7.23
2023-04-18T05:14:51.940Z,6.95
2023-04-18T05:19:59.827Z,7.40
2023-04-18T05:25:02.789Z,7.53
2023-04-18T05:30:08.559Z,6.70
2023-04-18T05:35:11.478Z,6.15
2023-04-18T05:40:15.087Z,6.72
2023-04-18T05:45:37.577Z,6.00
2023-04-18T05:50:40.536Z,6.25
2023-04-18T05:55:43.369Z,5.63
2023-04-18T06:00:48.093Z,5.97
2023-04-18T06:05:51.089Z,5.75
2023-04-18T06:11:15.157Z,6.00
2023-04-18T06:16:19.600Z,6.45
2023-04-18T06:21:29.801Z,6.80
2023-04-18T06:26:32.716Z,6.22
2023-04-18T06:31:37.097Z,5.15
2023-04-18T06:36:49.178Z,6.15
2023-04-18T06:41:52.015Z,5.53
2023-04-18T06:47:05.373Z,5.35
2023-04-18T06:52:09.213Z,5.30
2023-04-18T06:57:19.772Z,5.88
2023-04-18T07:02:27.435Z,5.32
2023-04-18T07:07:30.794Z,5.60
2023-04-18T07:12:33.889Z,5.40
2023-04-18T07:17:38.309Z,5.20
2023-04-18T07:22:41.949Z,5.40
2023-04-18T07:28:05.467Z,5.60
2023-04-18T07:33:09.788Z,4.90
2023-04-18T07:38:18.613Z,5.75
2023-04-18T07:43:21.713Z,5.43
2023-04-18T07:48:26.872Z,5.70
2023-04-18T07:53:59.782Z,5.65
2023-04-18T07:59:02.769Z,5.07
2023-04-18T08:04:07.366Z,6.10
2023-04-18T08:09:10.460Z,4.97
2023-04-18T08:14:13.528Z,5.25
2023-04-18T08:19:18.059Z,5.67
2023-04-18T08:24:21.095Z,4.95
2023-04-18T08:29:29.736Z,5.00
2023-04-18T08:34:38.130Z,5.00
2023-04-18T08:39:41.371Z,4.90
2023-04-18T08:44:50.104Z,4.28
2023-04-18T08:49:54.411Z,3.95
2023-04-18T08:54:58.230Z,4.22
2023-04-18T09:00:02.029Z,4.43
2023-04-18T09:05:14.182Z,4.53
2023-04-18T09:10:36.571Z,4.80
2023-04-18T09:15:40.863Z,4.97
2023-04-18T09:20:47.586Z,4.28
2023-04-18T09:25:52.255Z,5.07
2023-04-18T09:30:56.228Z,4.57
2023-04-18T09:36:22.133Z,5.40
2023-04-18T09:41:25.298Z,5.68
2023-04-18T09:46:47.358Z,5.93
2023-04-18T09:51:55.872Z,5.13
2023-04-18T09:56:59.216Z,6.05
2023-04-18T10:02:03.747Z,5.38
2023-04-18T10:07:08.122Z,4.95
2023-04-18T10:12:12.477Z,5.17
2023-04-18T10:17:16.033Z,5.20
2023-04-18T10:22:34.385Z,4.80
2023-04-18T10:28:00.402Z,5.90
2023-04-18T10:33:30.303Z,5.15
2023-04-18T10:38:36.161Z,5.67
2023-04-18T10:44:21.982Z,5.20
2023-04-18T10:49:27.835Z,5.32
2023-04-18T10:54:39.022Z,5.50
2023-04-18T10:59:43.787Z,6.00
2023-04-18T11:04:50.877Z,5.43
2023-04-18T11:09:56.550Z,5.47
2023-04-18T11:15:01.357Z,5.55
2023-04-18T11:20:19.647Z,5.40
2023-04-18T11:25:25.952Z,6.43
2023-04-18T11:30:31.278Z,6.03
2023-04-18T11:35:38.109Z,6.20
2023-04-18T11:40:48.519Z,6.33
2023-04-18T11:45:55.774Z,6.38
2023-04-18T11:50:58.630Z,6.45
2023-04-18T11:56:03.681Z,6.50
2023-04-18T12:01:20.219Z,6.80
2023-04-18T12:06:23.400Z,6.47
2023-04-18T12:11:32.357Z,7.07
2023-04-18T12:16:35.441Z,8.13
2023-04-18T12:21:55.512Z,7.95
2023-04-18T12:27:00.070Z,7.22
2023-04-18T12:32:03.250Z,7.13
2023-04-18T12:37:09.990Z,6.83
2023-04-18T12:42:14.156Z,7.80
2023-04-18T12:47:17.083Z,8.27
2023-04-18T12:52:19.958Z,8.53
2023-04-18T12:57:24.362Z,8.23
2023-04-18T13:02:46.021Z,7.03
2023-04-18T13:07:49.890Z,8.37
2023-04-18T13:12:54.079Z,9.77
2023-04-18T13:17:57.479Z,7.93
2023-04-18T13:23:00.439Z,8.93
2023-04-18T13:28:21.548Z,8.63
2023-04-18T13:33:24.468Z,8.95
2023-04-18T13:38:28.578Z,8.60
2023-04-18T13:43:32.778Z,9.05
2023-04-18T13:48:35.722Z,8.90
2023-04-18T13:53:55.792Z,8.95
2023-04-18T13:59:00.345Z,9.27
2023-04-18T14:04:03.882Z,8.10
2023-04-18T14:09:07.817Z,9.07
2023-04-18T14:14:12.090Z,9.02
2023-04-18T14:19:31.919Z,9.05
2023-04-18T14:24:36.004Z,9.25
2023-04-18T14:29:42.239Z,9.77
2023-04-18T14:34:45.185Z,8.17
2023-04-18T14:39:48.597Z,9.30
2023-04-18T14:45:11.705Z,9.15
2023-04-18T14:50:15.432Z,9.18
2023-04-18T14:55:19.392Z,9.03
2023-04-18T15:00:23.705Z,9.37
2023-04-18T15:05:26.648Z,9.80
2023-04-18T15:10:46.507Z,9.30
2023-04-18T15:15:54.296Z,9.80
2023-04-18T15:20:58.493Z,9.37
2023-04-18T15:26:01.330Z,9.53
2023-04-18T15:31:06.953Z,9.25
2023-04-18T15:36:21.062Z,9.02
2023-04-18T15:41:23.905Z,8.52
2023-04-18T15:46:28.285Z,9.32
2023-04-18T15:51:31.411Z,9.32
2023-04-18T15:56:36.663Z,8.43
2023-04-18T16:01:58.078Z,8.80
2023-04-18T16:07:01.148Z,7.63
2023-04-18T16:12:04.796Z,8.90
2023-04-18T16:17:08.991Z,9.50
2023-04-18T16:22:15.013Z,8.95
2023-04-18T16:27:33.346Z,9.00
2023-04-18T16:32:38.325Z,8.60
2023-04-18T16:37:41.467Z,8.82
2023-04-18T16:42:44.574Z,9.30
2023-04-18T16:47:48.911Z,8.32
2023-04-18T16:53:09.390Z,9.27
2023-04-18T16:58:12.244Z,8.55
2023-04-18T17:03:16.661Z,8.05
2023-04-18T17:08:19.756Z,6.47
2023-04-18T17:13:26.725Z,5.70
2023-04-18T17:18:47.978Z,5.60
2023-04-18T17:23:50.983Z,4.57
2023-04-18T17:28:54.005Z,4.40
2023-04-18T17:33:58.575Z,5.57
2023-04-18T17:39:06.234Z,4.78
2023-04-18T17:44:21.978Z,5.40
2023-04-18T17:49:30.708Z,5.25
2023-04-18T17:54:33.910Z,5.33
2023-04-18T17:59:37.843Z,5.97
2023-04-18T18:04:42.595Z,5.28
2023-04-18T18:09:58.907Z,5.88
2023-04-18T18:15:01.725Z,6.00
2023-04-18T18:20:09.791Z,5.72
2023-04-18T18:25:12.796Z,6.32
2023-04-18T18:30:17.297Z,6.15
2023-04-18T18:35:36.438Z,6.05
2023-04-18T18:40:39.334Z,6.30
2023-04-18T18:45:42.231Z,6.20
2023-04-18T18:50:46.357Z,5.40
2023-04-18T18:55:49.293Z,6.18
2023-04-18T19:01:12.452Z,6.53
2023-04-18T19:06:16.768Z,5.90
2023-04-18T19:11:21.011Z,5.87
2023-04-18T19:16:23.960Z,6.75
2023-04-18T19:21:28.541Z,7.03
2023-04-18T19:26:48.377Z,6.50
2023-04-18T19:31:51.525Z,6.72
2023-04-18T19:36:55.820Z,6.07
2023-04-18T19:41:58.604Z,7.18
2023-04-18T19:47:01.561Z,6.47
2023-04-18T19:52:26.124Z,7.38
2023-04-18T19:57:28.956Z,7.30
2023-04-18T20:02:32.124Z,6.83
2023-04-18T20:07:36.658Z,7.25
2023-04-18T20:12:39.557Z,7.43
2023-04-18T20:18:01.048Z,6.95
2023-04-18T20:23:05.349Z,6.93
2023-04-18T20:28:08.402Z,6.63
2023-04-18T20:33:11.296Z,7.47
2023-04-18T20:38:15.562Z,6.78
2023-04-18T20:43:38.758Z,7.28
2023-04-18T20:48:41.543Z,7.00
2023-04-18T20:53:45.692Z,6.82
2023-04-18T20:58:48.573Z,6.28
2023-04-18T21:03:51.615Z,5.97
2023-04-18T21:09:15.288Z,6.83
2023-04-18T21:14:18.350Z,6.20
2023-04-18T21:19:21.736Z,5.82
2023-04-18T21:24:26.009Z,6.10
2023-04-18T21:29:28.940Z,6.38
2023-04-18T21:34:50.765Z,6.05
2023-04-18T21:39:54.986Z,6.00
2023-04-18T21:44:57.901Z,6.25
2023-04-18T21:50:00.745Z,6.20
2023-04-18T21:55:05.539Z,5.68
2023-04-18T22:00:27.721Z,6.28
2023-04-18T22:05:30.594Z,6.07
2023-04-18T22:10:35.200Z,5.43
2023-04-18T22:15:39.824Z,5.40
2023-04-18T22:20:43.087Z,6.10
2023-04-18T22:26:03.955Z,5.95
2023-04-18T22:31:06.796Z,6.07
2023-04-18T22:36:09.909Z,6.40
2023-04-18T22:41:14.213Z,7.00
2023-04-18T22:46:17.253Z,6.27
2023-04-18T22:51:38.796Z,6.95
2023-04-18T22:56:43.064Z,6.38
2023-04-18T23:01:46.073Z,6.88
2023-04-18T23:06:48.896Z,7.30
2023-04-18T23:11:53.232Z,7.47
2023-04-18T23:17:14.933Z,8.88
2023-04-18T23:22:17.868Z,7.45
2023-04-18T23:27:22.170Z,7.60
2023-04-18T23:32:25.250Z,9.15
2023-04-18T23:37:28.205Z,8.00
2023-04-18T23:42:52.554Z,8.83
2023-04-18T23:47:55.693Z,8.93
2023-04-18T23:52:58.670Z,8.57
2023-04-18T23:58:02.881Z,9.07
